Time;durP1;ratioP1;P1;durP2;ratioP2;P2;SDS_P1;SDS_P2;PMS_P1;PMS_P2;Temp;Humidity;BMP_temperature;BMP_pressure;BME280_temperature;BME280_humidity;BME280_pressure;Samples;Min_cycle;Max_cycle;Signal;HPM_P1;HPM_P2
2022/06/28 00:01:03;;;;;;;6.70;6.10;;;;;;;21.22;59.42;100660.56;3525686;78;21492;-76
2022/06/28 00:05:54;;;;;;;7.05;6.40;;;;;;;21.13;59.57;100656.40;3524833;79;21768;-76
2022/06/28 00:10:46;;;;;;;6.75;6.05;;;;;;;21.04;59.90;100661.48;3549485;79;20946;-76
2022/06/28 00:20:47;;;;;;;6.65;5.85;;;;;;;20.91;60.19;100679.45;3572716;78;21014;-76
2022/06/28 00:25:38;;;;;;;5.90;5.40;;;;;;;20.85;60.41;100687.98;3466678;79;21020;-76
2022/06/28 00:30:29;;;;;;;7.05;6.50;;;;;;;20.79;60.59;100689.02;3400996;80;21889;-76
2022/06/28 00:35:20;;;;;;;6.78;6.22;;;;;;;20.71;60.62;100693.19;3509974;80;21133;-76
2022/06/28 00:40:12;;;;;;;6.53;6.03;;;;;;;20.70;61.13;100701.14;3436648;80;21483;-76
2022/06/28 00:45:05;;;;;;;6.53;5.92;;;;;;;20.65;61.19;100703.89;3485259;80;20975;-76
2022/06/28 00:49:59;;;;;;;6.70;5.87;;;;;;;20.62;61.29;100701.34;3485615;79;21062;-76
2022/06/28 00:54:50;;;;;;;6.42;5.83;;;;;;;20.57;61.54;100700.09;3471904;80;21015;-76
2022/06/28 00:59:41;;;;;;;8.63;6.37;;;;;;;20.50;61.70;100705.57;3494642;80;20966;-76
2022/06/28 01:04:32;;;;;;;6.83;6.22;;;;;;;20.42;61.77;100705.73;3521206;80;20978;-76
2022/06/28 01:09:24;;;;;;;8.65;6.08;;;;;;;20.37;62.09;100707.61;3494109;80;20966;-76
2022/06/28 01:14:16;;;;;;;6.90;6.40;;;;;;;20.34;62.26;100708.56;3473914;79;37527;-76
2022/06/28 01:19:27;;;;;;;7.33;6.72;;;;;;;20.28;62.26;100707.41;3459775;80;20967;-76
2022/06/28 01:24:20;;;;;;;6.90;6.33;;;;;;;20.27;62.34;100704.80;3439743;80;21442;-76
2022/06/28 01:29:14;;;;;;;7.22;6.55;;;;;;;20.18;62.45;100705.41;3523274;79;20947;-76
2022/06/28 01:34:18;;;;;;;7.67;6.72;;;;;;;20.11;62.64;100698.54;3514683;79;20927;-76
2022/06/28 01:39:10;;;;;;;6.65;6.05;;;;;;;20.06;62.97;100703.51;3541320;79;20955;-76
2022/06/28 01:44:08;;;;;;;6.35;5.85;;;;;;;20.00;63.20;100704.52;3505581;78;21844;-76
2022/06/28 01:49:01;;;;;;;6.90;6.28;;;;;;;19.96;63.41;100706.78;3521616;79;20904;-77
2022/06/28 01:53:54;;;;;;;6.80;6.30;;;;;;;19.93;63.58;100710.38;3541045;78;20970;-77
2022/06/28 01:58:47;;;;;;;6.97;6.17;;;;;;;19.89;63.64;100715.31;3531239;79;21010;-77
2022/06/28 02:03:38;;;;;;;7.03;6.53;;;;;;;19.87;63.85;100713.59;3504743;79;20991;-77
2022/06/28 02:08:36;;;;;;;7.20;6.60;;;;;;;19.81;63.94;100716.77;3501048;79;20967;-77
2022/06/28 02:13:29;;;;;;;9.03;6.70;;;;;;;19.75;64.02;100709.00;3516735;79;20999;-77
2022/06/28 02:18:20;;;;;;;6.97;6.12;;;;;;;19.71;64.34;100705.98;3512743;80;20997;-77
2022/06/28 02:23:12;;;;;;;7.80;7.03;;;;;;;19.66;64.34;100706.53;3504257;79;20955;-77
2022/06/28 02:28:04;;;;;;;6.83;6.22;;;;;;;19.62;64.45;100710.14;3462018;79;21154;-77
2022/06/28 02:32:55;;;;;;;8.65;7.00;;;;;;;19.60;64.60;100713.23;3473627;80;22604;-77
2022/06/28 02:43:01;;;;;;;7.62;6.83;;;;;;;19.51;64.93;100712.11;3428441;80;20991;-77
2022/06/28 02:47:53;;;;;;;7.78;6.78;;;;;;;19.47;65.07;100706.48;3422947;80;20972;-77
2022/06/28 02:52:44;;;;;;;8.93;6.08;;;;;;;19.42;65.14;100710.09;3444403;80;20963;-77
2022/06/28 02:57:36;;;;;;;6.87;6.30;;;;;;;19.41;65.28;100702.20;3416297;80;21099;-77
2022/06/28 03:02:28;;;;;;;7.58;6.78;;;;;;;19.40;65.46;100707.91;3452131;80;20947;-77
2022/06/28 03:07:19;;;;;;;7.55;6.60;;;;;;;19.39;65.62;100714.09;3497044;80;20972;-77
2022/06/28 03:12:11;;;;;;;7.42;6.78;;;;;;;19.48;65.65;100718.78;3499829;80;20960;-77
2022/06/28 03:17:02;;;;;;;6.95;6.08;;;;;;;19.87;65.70;100723.72;3449904;80;21451;-77
2022/06/28 03:21:53;;;;;;;10.28;6.35;;;;;;;20.88;64.86;100728.87;3474252;80;21125;-77
2022/06/28 03:26:45;;;;;;;7.05;6.45;;;;;;;21.79;63.35;100730.39;3477376;80;20947;-77
2022/06/28 03:31:36;;;;;;;6.62;5.87;;;;;;;22.56;62.01;100730.70;3461130;80;22059;-77
2022/06/28 03:36:29;;;;;;;6.33;5.83;;;;;;;23.35;60.36;100720.48;3383488;80;21565;-78
2022/06/28 03:41:25;;;;;;;6.35;5.55;;;;;;;24.20;58.90;100726.62;3469044;80;20957;-78
2022/06/28 03:46:27;;;;;;;5.90;5.50;;;;;;;24.14;58.10;100718.88;3481725;80;20904;-78
2022/06/28 03:51:20;;;;;;;7.67;6.15;;;;;;;23.72;57.99;100715.62;3458731;80;21007;-78
2022/06/28 03:56:26;;;;;;;7.00;5.97;;;;;;;23.17;58.42;100720.67;3457961;81;20976;-78
2022/06/28 04:01:18;;;;;;;7.40;6.62;;;;;;;22.48;58.96;100724.77;3476368;79;21395;-77
2022/06/28 04:06:09;;;;;;;7.17;6.03;;;;;;;22.02;59.91;100719.98;3458165;80;20947;-77
2022/06/28 04:11:16;;;;;;;7.58;5.90;;;;;;;21.64;60.54;100718.02;3498676;80;21089;-77
2022/06/28 04:16:09;;;;;;;6.92;6.35;;;;;;;21.39;61.07;100720.89;3481401;80;20964;-77
2022/06/28 04:21:01;;;;;;;6.65;5.95;;;;;;;21.19;61.79;100723.62;3422775;80;21003;-77
2022/06/28 04:25:53;;;;;;;8.95;6.50;;;;;;;21.13;62.30;100725.13;3459379;80;20939;-77
2022/06/28 04:30:46;;;;;;;7.75;6.95;;;;;;;21.10;62.63;100720.80;3468360;80;20927;-77
2022/06/28 04:35:37;;;;;;;6.62;6.03;;;;;;;21.09;63.02;100718.20;3421088;80;20997;-78
2022/06/28 04:40:29;;;;;;;9.93;6.10;;;;;;;21.09;63.18;100701.02;3406968;80;20995;-77
2022/06/28 04:45:23;;;;;;;7.35;6.60;;;;;;;21.11;63.22;100700.52;3483076;80;20979;-77
2022/06/28 04:50:16;;;;;;;8.70;6.17;;;;;;;21.21;63.42;100694.08;3432835;79;21584;-78
2022/06/28 04:55:08;;;;;;;6.83;5.08;;;;;;;21.39;63.59;100693.12;3489865;79;20915;-77
2022/06/28 05:00:11;;;;;;;6.50;5.97;;;;;;;21.51;63.68;100692.81;3489593;80;20927;-78
2022/06/28 05:05:09;;;;;;;6.03;5.42;;;;;;;21.64;63.40;100677.45;3503044;80;20979;-77
2022/06/28 05:10:04;;;;;;;8.05;5.65;;;;;;;21.78;63.39;100665.14;3470668;80;21487;-76
2022/06/28 05:14:56;;;;;;;8.68;6.08;;;;;;;21.94;63.65;100665.06;3459918;80;20959;-76
2022/06/28 05:19:50;;;;;;;6.05;5.45;;;;;;;22.06;63.24;100656.75;3446575;80;20987;-77
2022/06/28 05:24:42;;;;;;;7.28;5.62;;;;;;;22.23;63.24;100654.01;3395515;80;21193;-76
2022/06/28 05:29:35;;;;;;;6.92;4.80;;;;;;;22.53;62.88;100646.86;3501788;79;21366;-76
2022/06/28 05:34:26;;;;;;;6.47;5.80;;;;;;;22.85;62.48;100635.15;3518217;79;20951;-76
2022/06/28 05:39:18;;;;;;;6.50;4.90;;;;;;;23.00;62.23;100631.55;3499419;79;20999;-76
2022/06/28 05:44:14;;;;;;;6.58;5.30;;;;;;;24.04;60.51;100627.22;3504040;79;20951;-76
2022/06/28 05:49:08;;;;;;;6.03;5.55;;;;;;;24.32;60.11;100625.19;3498904;79;21310;-78
2022/06/28 05:53:59;;;;;;;7.67;4.53;;;;;;;24.52;59.59;100630.09;3507071;80;20965;-74
2022/06/28 05:58:50;;;;;;;5.50;5.00;;;;;;;25.67;57.76;100631.66;3528788;79;20938;-75
2022/06/28 06:03:42;;;;;;;7.05;5.20;;;;;;;25.48;57.57;100638.30;3490384;79;20911;-75
2022/06/28 06:08:35;;;;;;;7.03;5.17;;;;;;;25.30;57.81;100624.52;3488173;79;20991;-75
2022/06/28 06:13:26;;;;;;;5.90;5.22;;;;;;;25.26;57.46;100626.45;3529244;79;21029;-75
2022/06/28 06:18:18;;;;;;;5.67;5.17;;;;;;;25.34;57.17;100636.74;3525488;79;21476;-75
2022/06/28 06:23:09;;;;;;;5.20;4.67;;;;;;;25.53;56.53;100630.59;3469090;79;20971;-75
2022/06/28 06:28:08;;;;;;;5.22;4.72;;;;;;;25.68;56.27;100633.84;3481032;79;21471;-75
2022/06/28 06:32:59;;;;;;;9.65;4.67;;;;;;;26.02;55.46;100635.80;3477360;79;21120;-77
2022/06/28 06:38:00;;;;;;;4.40;4.00;;;;;;;26.52;54.69;100621.34;3447789;79;21002;-77
2022/06/28 06:42:52;;;;;;;4.80;3.87;;;;;;;26.68;54.49;100630.78;3464837;79;21001;-79
2022/06/28 06:47:45;;;;;;;4.72;4.33;;;;;;;27.70;53.02;100622.20;3478859;79;21069;-77
2022/06/28 06:52:37;;;;;;;4.65;4.00;;;;;;;27.66;52.61;100624.19;3456072;79;21487;-78
2022/06/28 06:57:29;;;;;;;4.53;4.12;;;;;;;27.94;51.13;100607.98;3501922;79;21377;-79
2022/06/28 07:02:21;;;;;;;4.33;3.92;;;;;;;29.09;49.35;100613.13;3505852;79;21208;-77
2022/06/28 07:07:14;;;;;;;6.25;3.95;;;;;;;29.00;49.56;100619.55;3512765;79;20982;-79
2022/06/28 07:12:06;;;;;;;5.00;3.83;;;;;;;28.82;49.12;100615.70;3452234;79;20958;-80
2022/06/28 07:16:58;;;;;;;5.45;3.52;;;;;;;28.76;48.79;100630.80;3461652;79;21460;-80
2022/06/28 07:21:49;;;;;;;4.08;3.62;;;;;;;28.78;48.13;100618.19;3458587;79;21030;-80
2022/06/28 07:26:41;;;;;;;5.62;3.50;;;;;;;30.26;45.81;100620.84;3475092;79;21468;-82
2022/06/28 07:31:32;;;;;;;5.03;4.37;;;;;;;31.65;41.93;100621.50;3501597;79;20967;-80
2022/06/28 07:36:24;;;;;;;3.42;3.12;;;;;;;35.41;38.99;100616.81;3508871;79;22042;-79
2022/06/28 07:41:16;;;;;;;4.30;3.30;;;;;;;38.16;36.89;100628.30;3508773;79;20990;-79
2022/06/28 07:46:07;;;;;;;4.47;3.90;;;;;;;40.29;32.43;100620.84;3507215;79;20930;-79
2022/06/28 07:56:11;;;;;;;3.47;3.20;;;;;;;43.40;28.41;100614.45;3507250;79;20967;-77
2022/06/28 08:01:02;;;;;;;4.37;3.67;;;;;;;44.39;26.01;100613.78;3551468;79;20970;-78
2022/06/28 08:05:54;;;;;;;4.05;3.62;;;;;;;44.19;25.57;100619.11;3505134;79;21030;-76
2022/06/28 08:10:48;;;;;;;3.65;3.35;;;;;;;42.63;26.11;100630.17;3491407;79;20896;-77
2022/06/28 08:15:40;;;;;;;3.35;3.10;;;;;;;40.19;26.99;100631.39;3529428;79;21158;-75
2022/06/28 08:20:31;;;;;;;5.70;4.15;;;;;;;38.22;28.29;100622.23;3507823;79;20982;-76
2022/06/28 08:25:23;;;;;;;3.55;3.25;;;;;;;38.99;27.90;100623.84;3472643;79;20986;-76
2022/06/28 08:30:14;;;;;;;3.55;3.30;;;;;;;42.02;25.81;100629.31;3451764;80;21253;-77
2022/06/28 08:35:06;;;;;;;4.83;3.27;;;;;;;43.83;23.30;100620.01;3460600;80;20992;-77
2022/06/28 08:39:58;;;;;;;3.47;3.17;;;;;;;45.19;23.57;100623.08;3398495;79;21795;-77
2022/06/28 08:44:50;;;;;;;3.70;3.30;;;;;;;46.25;22.34;100623.07;3482930;80;20992;-78
2022/06/28 08:49:50;;;;;;;3.40;3.10;;;;;;;46.32;21.23;100629.41;3513634;80;21011;-77
2022/06/28 08:54:43;;;;;;;3.30;3.00;;;;;;;46.70;19.81;100630.13;3519091;80;21038;-77
2022/06/28 08:59:36;;;;;;;3.27;3.08;;;;;;;46.73;19.74;100632.45;3477371;80;20951;-77
2022/06/28 09:04:31;;;;;;;5.37;3.77;;;;;;;47.26;19.51;100638.36;3443384;80;22165;-77
2022/06/28 09:09:23;;;;;;;3.98;3.67;;;;;;;47.30;18.94;100631.38;3498300;79;21023;-77
2022/06/28 09:14:30;;;;;;;5.23;3.67;;;;;;;46.73;18.86;100631.08;3441709;80;20942;-77
2022/06/28 09:19:35;;;;;;;2.95;2.75;;;;;;;43.15;19.23;100618.84;3432405;80;20972;-77
2022/06/28 09:24:26;;;;;;;6.15;3.30;;;;;;;40.14;22.94;100629.69;3390074;80;21493;-76
2022/06/28 09:29:18;;;;;;;4.30;3.37;;;;;;;38.76;24.79;100617.22;3331243;83;20970;-76
2022/06/28 09:34:11;;;;;;;3.60;3.30;;;;;;;39.00;24.92;100613.30;3290699;83;21007;-76
2022/06/28 09:39:15;;;;;;;3.58;3.12;;;;;;;41.53;23.17;100605.88;3341687;83;21376;-77
2022/06/28 09:44:07;;;;;;;;;;;;;;;41.18;23.43;100596.34;3401562;80;21427;-75
2022/06/28 09:49:05;;;;;;;3.37;3.10;;;;;;;40.77;23.76;100583.67;3378642;81;21198;-77
2022/06/28 09:54:06;;;;;;;3.47;3.27;;;;;;;42.83;22.60;100594.09;3455205;81;21521;-77
2022/06/28 09:58:58;;;;;;;4.42;3.50;;;;;;;42.25;22.69;100589.73;3381374;81;20930;-76
2022/06/28 10:03:49;;;;;;;4.03;3.53;;;;;;;44.00;21.95;100579.50;3467430;78;21048;-77
2022/06/28 10:08:42;;;;;;;4.47;3.85;;;;;;;44.67;21.51;100583.65;3405497;80;20962;-77
2022/06/28 10:18:45;;;;;;;3.55;3.30;;;;;;;44.28;21.09;100577.34;3513216;79;20934;-77
2022/06/28 10:23:40;;;;;;;3.42;3.12;;;;;;;44.50;20.23;100579.49;3489434;79;20975;-77
2022/06/28 10:28:43;;;;;;;3.67;3.10;;;;;;;44.50;20.23;100579.49;3485085;79;21011;-77
2022/06/28 10:33:42;;;;;;;3.33;3.02;;;;;;;43.72;20.18;100577.58;3488787;80;21453;-77
2022/06/28 10:38:33;;;;;;;3.75;3.12;;;;;;;43.76;21.05;100571.19;3454257;80;20900;-76
2022/06/28 10:43:30;;;;;;;3.42;3.22;;;;;;;41.95;22.03;100578.67;3457582;80;21613;-76
2022/06/28 10:48:21;;;;;;;4.03;3.55;;;;;;;41.99;22.38;100575.06;3463486;79;21086;-78
2022/06/28 10:53:12;;;;;;;3.75;3.17;;;;;;;41.96;22.58;100572.16;3481202;79;20970;-77
2022/06/28 10:58:08;;;;;;;3.90;3.50;;;;;;;42.18;22.33;100566.92;3493259;80;20935;-77
2022/06/28 11:03:03;;;;;;;3.30;3.00;;;;;;;42.89;21.86;100569.24;3394240;80;21125;-77
2022/06/28 11:08:00;;;;;;;3.35;3.05;;;;;;;42.21;23.04;100577.45;3467918;80;20974;-76
2022/06/28 11:12:52;;;;;;;4.87;3.37;;;;;;;40.85;22.85;100567.83;3433395;81;20953;-76
2022/06/28 11:17:44;;;;;;;5.55;3.12;;;;;;;39.75;23.20;100570.42;3399601;80;20986;-75
2022/06/28 11:22:45;;;;;;;3.30;3.05;;;;;;;39.03;24.80;100574.95;3403693;81;21018;-77
2022/06/28 11:27:52;;;;;;;4.20;3.40;;;;;;;38.75;24.77;100557.97;3414373;80;20958;-74
2022/06/28 11:32:48;;;;;;;3.35;3.05;;;;;;;38.63;25.28;100558.74;3398074;80;21182;-74
2022/06/28 11:38:05;;;;;;;3.90;3.60;;;;;;;38.56;24.88;100563.11;3455077;80;20964;-74
2022/06/28 11:43:05;;;;;;;4.33;3.70;;;;;;;38.65;24.57;100564.02;3377229;80;21494;-74
2022/06/28 11:48:02;;;;;;;3.55;3.25;;;;;;;38.59;25.01;100560.09;3437900;80;21079;-73
2022/06/28 11:52:57;;;;;;;3.45;3.25;;;;;;;38.52;24.98;100557.12;3403376;80;20957;-74
2022/06/28 11:58:26;;;;;;;4.08;3.77;;;;;;;38.37;25.29;100547.00;3417338;81;22171;-74
2022/06/28 12:03:17;;;;;;;3.20;3.00;;;;;;;38.33;24.52;100562.27;3430928;80;21003;-74
2022/06/28 12:08:08;;;;;;;5.25;3.37;;;;;;;38.25;24.44;100559.48;3425057;80;20983;-74
2022/06/28 12:13:10;;;;;;;3.65;3.37;;;;;;;38.36;24.78;100553.46;3402617;80;20936;-74
2022/06/28 12:18:07;;;;;;;3.45;3.22;;;;;;;38.51;25.45;100549.16;3425651;80;20948;-74
2022/06/28 12:23:04;;;;;;;3.30;3.10;;;;;;;38.51;25.67;100549.16;3421666;80;21036;-74
2022/06/28 12:27:55;;;;;;;3.83;3.40;;;;;;;38.55;25.02;100538.31;3423657;80;20960;-75
2022/06/28 12:32:47;;;;;;;3.60;3.30;;;;;;;38.60;24.50;100540.08;3418329;80;20976;-74
2022/06/28 12:37:39;;;;;;;4.33;3.87;;;;;;;38.64;24.82;100548.23;3435022;79;20951;-75
2022/06/28 12:42:32;;;;;;;3.52;3.22;;;;;;;38.62;24.49;100542.63;3467945;80;21011;-75
2022/06/28 12:47:23;;;;;;;5.97;3.22;;;;;;;38.84;25.04;100543.92;3491976;80;21616;-75
2022/06/28 12:52:15;;;;;;;3.50;3.25;;;;;;;38.98;23.63;100528.36;3399956;80;20911;-75
2022/06/28 12:57:06;;;;;;;3.62;3.33;;;;;;;38.78;23.74;100522.82;3503678;80;21576;-74
2022/06/28 13:01:58;;;;;;;5.25;3.80;;;;;;;38.46;23.87;100518.91;3530793;79;21018;-75
2022/06/28 13:06:50;;;;;;;4.00;3.45;;;;;;;38.60;23.56;100508.84;3476312;79;21526;-73
2022/06/28 13:11:42;;;;;;;3.47;3.27;;;;;;;38.69;24.51;100503.78;3500551;79;21093;-74
2022/06/28 13:16:35;;;;;;;3.75;3.45;;;;;;;38.48;24.14;100503.31;3460890;79;20958;-73
2022/06/28 13:21:26;;;;;;;4.28;3.62;;;;;;;38.33;23.79;100498.47;3426432;79;20969;-74
2022/06/28 13:26:18;;;;;;;3.98;3.52;;;;;;;37.98;24.26;100495.31;3487104;79;21496;-73
2022/06/28 13:31:09;;;;;;;8.65;3.52;;;;;;;37.95;26.04;100498.33;3481461;78;21002;-74
2022/06/28 13:36:01;;;;;;;9.33;5.00;;;;;;;37.98;24.97;100491.75;3414947;81;22331;-73
2022/06/28 13:40:55;;;;;;;6.90;4.25;;;;;;;37.29;25.73;100485.49;3374601;80;20951;-72
2022/06/28 13:45:46;;;;;;;4.10;3.80;;;;;;;37.69;25.41;100478.80;3422534;80;20920;-73
2022/06/28 13:50:37;;;;;;;3.92;3.52;;;;;;;37.67;25.36;100467.27;3473020;80;21303;-73
2022/06/28 13:55:28;;;;;;;4.53;4.12;;;;;;;37.68;25.99;100465.40;3439716;80;22188;-73
2022/06/28 14:00:19;;;;;;;4.17;3.85;;;;;;;37.39;25.34;100466.47;3453174;80;21191;-73
2022/06/28 14:05:11;;;;;;;4.28;3.98;;;;;;;37.48;25.47;100452.48;3509892;79;21002;-74
2022/06/28 14:10:04;;;;;;;4.55;4.00;;;;;;;36.65;25.06;100452.05;3412583;81;21000;-74
2022/06/28 14:14:55;;;;;;;3.70;3.40;;;;;;;35.97;25.88;100450.39;3438568;80;21557;-73
2022/06/28 14:19:47;;;;;;;3.90;3.60;;;;;;;35.46;26.29;100456.94;3420159;80;21034;-73
2022/06/28 14:24:38;;;;;;;3.77;2.92;;;;;;;35.01;26.83;100479.04;3544446;78;21231;-74
2022/06/28 14:29:33;;;;;;;4.40;3.62;;;;;;;34.60;27.00;100497.90;3448717;80;21109;-76
2022/06/28 14:34:24;;;;;;;3.75;3.45;;;;;;;34.25;28.10;100503.67;3478479;79;21104;-74
2022/06/28 14:39:16;;;;;;;3.75;3.42;;;;;;;33.98;28.43;100496.92;3452942;81;21443;-74
2022/06/28 14:44:11;;;;;;;4.22;3.70;;;;;;;33.72;28.70;100503.20;3451887;79;21142;-75
2022/06/28 14:49:02;;;;;;;6.92;3.83;;;;;;;33.52;29.60;100518.28;3458203;80;20984;-74
2022/06/28 14:53:53;;;;;;;3.85;3.22;;;;;;;33.31;29.60;100509.66;3444189;80;22157;-74
2022/06/28 14:58:44;;;;;;;3.98;3.40;;;;;;;33.09;30.21;100513.23;3470548;80;20932;-73
2022/06/28 15:03:36;;;;;;;4.92;4.30;;;;;;;32.81;31.12;100523.52;3462911;80;20999;-75
2022/06/28 15:08:27;;;;;;;5.45;3.70;;;;;;;32.61;31.69;100524.27;3472146;80;21457;-75
2022/06/28 15:13:19;;;;;;;5.15;3.92;;;;;;;32.40;32.01;100524.08;3467400;80;21029;-75
2022/06/28 15:18:10;;;;;;;5.78;4.20;;;;;;;32.19;32.50;100527.94;3457015;80;20913;-75
2022/06/28 15:33:25;;;;;;;10.93;7.30;;;;;;;31.12;36.43;100629.77;3452141;80;21014;-75
2022/06/28 15:38:16;;;;;;;10.65;7.60;;;;;;;30.32;40.07;100682.62;3478836;80;20984;-75
2022/06/28 15:43:08;;;;;;;11.12;7.92;;;;;;;29.43;41.30;100711.46;3501819;78;21568;-75
2022/06/28 15:47:59;;;;;;;9.08;6.67;;;;;;;28.61;43.26;100744.05;3426001;78;20925;-75
2022/06/28 15:52:50;;;;;;;7.80;6.67;;;;;;;28.11;44.60;100743.28;3442185;79;21681;-74
2022/06/28 15:57:42;;;;;;;8.78;5.62;;;;;;;27.76;45.48;100742.92;3476291;80;20966;-75
2022/06/28 16:02:33;;;;;;;6.30;5.35;;;;;;;27.61;46.37;100737.07;3438365;79;21427;-76
2022/06/28 16:07:25;;;;;;;6.33;5.22;;;;;;;27.43;46.70;100728.24;3433826;79;21014;-73
2022/06/28 16:17:26;;;;;;;6.20;5.05;;;;;;;27.25;47.39;100722.52;3469032;79;21505;-76
2022/06/28 16:22:17;;;;;;;6.42;5.72;;;;;;;27.11;48.24;100721.91;3504603;79;21005;-76
2022/06/28 16:27:09;;;;;;;5.08;4.67;;;;;;;26.98;48.20;100731.87;3474199;79;21302;-76
2022/06/28 16:32:00;;;;;;;5.70;5.15;;;;;;;26.82;48.72;100736.27;3419228;80;21390;-76
2022/06/28 16:36:51;;;;;;;6.30;4.15;;;;;;;26.69;49.03;100732.52;3461958;80;21419;-75
2022/06/28 16:41:43;;;;;;;5.97;4.53;;;;;;;26.55;49.14;100746.49;3466396;80;20961;-75
2022/06/28 16:46:34;;;;;;;4.95;4.55;;;;;;;26.39;49.24;100755.70;3461630;80;20955;-77
2022/06/28 16:51:25;;;;;;;5.17;4.53;;;;;;;26.28;49.70;100760.70;3440581;79;20931;-77
2022/06/28 16:56:16;;;;;;;4.83;4.53;;;;;;;26.21;50.07;100769.45;3454204;79;20948;-78
2022/06/28 17:01:08;;;;;;;6.10;5.50;;;;;;;26.06;50.97;100779.03;3480663;79;20936;-77
2022/06/28 17:06:02;;;;;;;5.90;5.40;;;;;;;25.87;51.65;100787.83;3477607;79;21454;-77
2022/06/28 17:10:53;;;;;;;5.60;5.20;;;;;;;25.59;52.49;100771.38;3422316;79;21129;-77
2022/06/28 17:15:44;;;;;;;6.40;5.80;;;;;;;25.39;53.40;100781.10;3429837;80;21027;-77
2022/06/28 17:20:35;;;;;;;5.85;5.45;;;;;;;25.26;53.64;100783.91;3444225;79;21007;-77
2022/06/28 17:25:27;;;;;;;7.10;6.40;;;;;;;25.18;54.02;100763.38;3413577;80;20952;-77
2022/06/28 17:30:18;;;;;;;7.40;6.70;;;;;;;25.09;54.25;100750.89;3439735;79;21225;-77
2022/06/28 17:35:09;;;;;;;8.58;7.85;;;;;;;25.00;54.82;100736.63;3492652;79;20963;-77
2022/06/28 17:40:02;;;;;;;8.35;7.75;;;;;;;24.95;55.68;100719.15;3497593;79;21103;-77
2022/06/28 17:44:53;;;;;;;8.08;7.37;;;;;;;24.77;56.19;100694.22;3428555;79;20932;-77
2022/06/28 17:49:45;;;;;;;9.98;7.67;;;;;;;24.71;56.13;100675.41;3478214;79;20930;-77
2022/06/28 17:54:38;;;;;;;9.33;8.43;;;;;;;24.64;56.62;100670.80;3474773;79;20998;-77
2022/06/28 17:59:29;;;;;;;8.90;8.20;;;;;;;24.60;56.85;100659.91;3494836;79;20954;-77
2022/06/28 18:04:21;;;;;;;8.13;7.53;;;;;;;24.57;57.25;100657.37;3448344;79;21201;-77
2022/06/28 18:09:13;;;;;;;10.10;8.63;;;;;;;24.61;57.67;100662.98;3526114;79;21006;-77
2022/06/28 18:14:05;;;;;;;9.95;9.03;;;;;;;24.62;57.92;100646.09;3482190;79;21511;-77
2022/06/28 18:18:58;;;;;;;9.30;8.50;;;;;;;24.68;58.01;100645.84;3450265;79;20939;-77
2022/06/28 18:23:50;;;;;;;9.25;8.45;;;;;;;24.74;58.17;100635.41;3514593;79;20987;-77
2022/06/28 18:28:41;;;;;;;9.58;8.78;;;;;;;24.79;58.16;100625.88;3494480;79;21963;-77
2022/06/28 18:33:32;;;;;;;9.35;8.35;;;;;;;24.78;58.43;100622.37;3503259;79;21579;-77
2022/06/28 18:38:24;;;;;;;9.45;8.65;;;;;;;24.79;58.56;100616.13;3528404;78;20919;-77
2022/06/28 18:43:15;;;;;;;9.60;8.80;;;;;;;24.80;58.63;100626.30;3504988;79;20884;-77
2022/06/28 18:48:08;;;;;;;11.05;9.95;;;;;;;24.73;58.84;100628.34;3509492;78;20962;-77
2022/06/28 18:52:59;;;;;;;10.38;9.53;;;;;;;24.62;58.95;100627.48;3533353;78;21905;-77
2022/06/28 18:57:50;;;;;;;10.38;9.40;;;;;;;24.60;59.18;100623.17;3562302;79;21395;-77
2022/06/28 19:02:41;;;;;;;10.08;9.08;;;;;;;24.55;59.25;100634.84;3532539;78;20915;-77
2022/06/28 19:07:32;;;;;;;11.10;9.98;;;;;;;24.51;59.68;100654.48;3507369;79;20982;-77
2022/06/28 19:12:24;;;;;;;10.95;10.15;;;;;;;24.38;59.75;100649.73;3539311;79;20950;-77
2022/06/28 19:17:15;;;;;;;9.53;8.83;;;;;;;24.32;59.92;100649.09;3497677;78;21262;-77
2022/06/28 19:22:06;;;;;;;11.00;10.00;;;;;;;24.27;60.11;100659.05;3476624;79;20978;-77
2022/06/28 19:26:58;;;;;;;10.23;9.35;;;;;;;24.24;60.47;100676.42;3459190;79;21272;-77
2022/06/28 19:31:49;;;;;;;11.65;10.70;;;;;;;24.21;60.56;100688.97;3432834;80;21544;-77
2022/06/28 19:36:40;;;;;;;11.45;10.32;;;;;;;24.16;60.93;100714.38;3460561;80;21037;-77
2022/06/28 19:41:32;;;;;;;10.82;9.83;;;;;;;23.99;61.05;100708.41;3504864;79;21120;-77
2022/06/28 19:46:23;;;;;;;11.73;10.72;;;;;;;23.88;61.45;100719.45;3520357;79;21502;-77
2022/06/28 19:51:14;;;;;;;11.33;10.32;;;;;;;23.76;62.08;100714.57;3489063;79;20959;-77
2022/06/28 19:56:05;;;;;;;10.93;9.88;;;;;;;23.71;62.28;100715.20;3448361;79;20958;-77
2022/06/28 20:00:58;;;;;;;12.35;11.30;;;;;;;23.62;62.65;100711.10;3469499;79;21010;-77
2022/06/28 20:05:49;;;;;;;12.58;11.35;;;;;;;23.54;62.72;100729.97;3441087;79;22185;-77
2022/06/28 20:10:41;;;;;;;11.75;10.85;;;;;;;23.45;62.96;100736.95;3466446;80;21037;-77
2022/06/28 20:15:33;;;;;;;11.73;10.82;;;;;;;23.36;63.37;100751.87;3490753;80;20947;-75
2022/06/28 20:20:26;;;;;;;12.10;11.00;;;;;;;23.24;63.70;100747.00;3429088;80;20994;-75
2022/06/28 20:25:17;;;;;;;12.05;10.98;;;;;;;23.17;63.91;100734.41;3459015;80;21422;-75
2022/06/28 20:30:10;;;;;;;12.95;11.85;;;;;;;23.12;64.05;100746.95;3472149;79;21274;-75
2022/06/28 20:35:01;;;;;;;11.05;10.15;;;;;;;23.10;64.31;100743.03;3453970;80;20932;-75
2022/06/28 20:39:53;;;;;;;12.43;11.33;;;;;;;23.10;64.57;100755.43;3369557;80;21225;-75
2022/06/28 20:44:44;;;;;;;13.55;12.13;;;;;;;23.07;64.92;100748.90;3427612;80;20947;-75
2022/06/28 20:49:36;;;;;;;13.00;11.88;;;;;;;23.05;65.01;100747.62;3438795;80;21443;-75
2022/06/28 20:54:27;;;;;;;13.62;12.43;;;;;;;23.03;65.24;100741.48;3532771;79;20950;-75
2022/06/28 20:59:18;;;;;;;12.80;11.80;;;;;;;23.02;65.36;100735.78;3447145;80;20981;-75
2022/06/28 21:04:09;;;;;;;14.43;13.03;;;;;;;22.97;65.73;100750.52;3501799;79;21431;-75
2022/06/28 21:09:00;;;;;;;14.63;13.13;;;;;;;22.91;65.94;100802.86;3391236;80;20958;-75
2022/06/28 21:13:52;;;;;;;14.50;13.15;;;;;;;22.90;66.03;100785.24;3505725;79;21022;-75
2022/06/28 21:18:43;;;;;;;14.50;13.18;;;;;;;22.91;66.25;100808.16;3479417;80;21445;-75
2022/06/28 21:23:35;;;;;;;14.13;12.95;;;;;;;22.90;66.38;100795.84;3394080;80;21030;-75
2022/06/28 21:28:26;;;;;;;12.98;11.85;;;;;;;22.88;66.71;100792.38;3495167;79;20959;-75
2022/06/28 21:33:17;;;;;;;13.08;12.05;;;;;;;22.86;66.88;100800.38;3396783;80;20980;-75
2022/06/28 21:38:09;;;;;;;14.68;13.38;;;;;;;22.79;66.97;100794.41;3481082;78;21397;-75
2022/06/28 21:43:00;;;;;;;13.75;12.73;;;;;;;22.80;67.10;100793.50;3479619;79;22093;-75
2022/06/28 21:47:52;;;;;;;11.48;10.58;;;;;;;22.76;67.32;100785.69;3495267;79;20927;-75
2022/06/28 21:52:43;;;;;;;12.28;11.25;;;;;;;22.72;67.39;100782.27;3435830;79;21572;-75
2022/06/28 21:57:35;;;;;;;12.30;11.30;;;;;;;22.61;67.60;100789.24;3491428;79;20916;-75
2022/06/28 22:02:26;;;;;;;12.60;11.50;;;;;;;22.59;67.96;100790.19;3516407;79;21404;-75
2022/06/28 22:07:17;;;;;;;11.77;10.67;;;;;;;22.55;67.91;100796.52;3491380;79;21045;-75
2022/06/28 22:12:09;;;;;;;11.70;10.70;;;;;;;22.57;68.19;100805.27;3516673;79;21632;-74
2022/06/28 22:17:00;;;;;;;12.23;11.25;;;;;;;22.55;68.20;100798.69;3508543;79;20888;-75
2022/06/28 22:21:51;;;;;;;13.00;11.88;;;;;;;22.56;68.42;100808.86;3505066;79;20980;-75
2022/06/28 22:26:42;;;;;;;12.20;11.20;;;;;;;22.56;68.71;100803.56;3515813;78;20927;-75
2022/06/28 22:31:33;;;;;;;14.47;13.38;;;;;;;22.54;68.67;100793.47;3524708;79;22425;-75
2022/06/28 22:36:24;;;;;;;13.40;12.18;;;;;;;22.54;69.11;100779.75;3428919;80;20962;-75
2022/06/28 22:41:18;;;;;;;14.23;13.03;;;;;;;22.55;69.18;100779.29;3383788;80;20944;-75
2022/06/28 22:46:09;;;;;;;13.88;12.78;;;;;;;22.55;69.20;100771.34;3414662;80;20940;-75
2022/06/28 22:51:02;;;;;;;14.83;13.53;;;;;;;22.49;69.32;100773.73;3420184;80;20909;-75
2022/06/28 22:55:53;;;;;;;15.05;13.83;;;;;;;22.49;69.53;100775.52;3424032;80;21032;-75
2022/06/28 23:00:44;;;;;;;16.10;14.87;;;;;;;22.43;69.56;100778.77;3465146;80;20955;-75
2022/06/28 23:05:36;;;;;;;15.28;14.00;;;;;;;22.39;69.93;100788.17;3468213;80;20952;-75
2022/06/28 23:15:37;;;;;;;16.25;14.85;;;;;;;22.34;70.21;100812.17;3477306;80;21178;-75